Terminal Aerodrome Forecast
Issued by NWS

Home | Current Version | Previous Version | Text Only | Print | Product List | Glossary On
Versions: 1 2 3 4 5 6 7 8 9 10 11 12 13 14 15
000
FTUS45 KRIW 292300
TAFBPI
TAF
KBPI 292339Z 3000/3024 03006KT 6SM -SHRA SCT025 OVC050
      TEMPO 3000/3002 5SM -SHRA BR SCT008 OVC025
     FM300700 VRB06KT P6SM VCSH SCT060
     FM301900 VRB06KT P6SM VCTS SCT030 BKN070CB=

USA.gov is the U.S. government's official web portal to all federal, state and local government web resources and services.